createdAt,value
2018-11-25T00:01:46.239Z,4.10
2018-11-25T00:04:14.430Z,4.60
2018-11-25T00:06:42.699Z,4.60
2018-11-25T00:09:10.763Z,4.30
2018-11-25T00:11:38.885Z,4.20
2018-11-25T00:14:07.165Z,4.10
2018-11-25T00:16:35.246Z,4.10
2018-11-25T00:19:03.302Z,4.10
2018-11-25T00:21:31.497Z,4.20
2018-11-25T00:23:59.629Z,4.10
2018-11-25T00:26:27.689Z,4.20
2018-11-25T00:28:55.766Z,4.20
2018-11-25T00:31:23.843Z,4.30
2018-11-25T00:33:51.896Z,4.10
2018-11-25T00:36:20.609Z,4.00
2018-11-25T00:38:48.667Z,4.10
2018-11-25T00:41:16.751Z,4.20
2018-11-25T00:43:44.819Z,4.30
2018-11-25T00:46:12.896Z,4.30
2018-11-25T00:48:41.162Z,4.40
2018-11-25T00:51:09.234Z,4.50
2018-11-25T00:53:37.394Z,4.50
2018-11-25T00:56:06.371Z,4.60
2018-11-25T00:58:34.537Z,4.50
2018-11-25T01:01:02.622Z,4.40
2018-11-25T01:03:30.789Z,4.30
2018-11-25T01:05:58.887Z,4.30
2018-11-25T01:08:27.017Z,4.40
2018-11-25T01:10:55.456Z,4.40
2018-11-25T01:13:23.526Z,4.30
2018-11-25T01:15:51.631Z,4.30
2018-11-25T01:18:19.725Z,4.00
2018-11-25T01:20:47.858Z,4.10
2018-11-25T01:23:15.954Z,4.10
2018-11-25T01:25:44.127Z,4.10
2018-11-25T01:28:12.183Z,4.10
2018-11-25T01:30:40.715Z,4.00
2018-11-25T01:33:08.813Z,4.10
2018-11-25T01:35:37.486Z,4.10
2018-11-25T01:38:05.621Z,4.20
2018-11-25T01:40:33.783Z,4.30
2018-11-25T01:43:02.487Z,4.50
2018-11-25T01:45:30.531Z,4.50
2018-11-25T01:47:58.591Z,4.50
2018-11-25T01:50:26.640Z,4.50
2018-11-25T01:52:54.698Z,4.40
2018-11-25T01:55:22.746Z,4.30
2018-11-25T01:57:50.802Z,4.40
2018-11-25T02:00:19.760Z,4.40
2018-11-25T02:02:47.925Z,4.40
2018-11-25T02:05:16.002Z,4.30
2018-11-25T02:07:44.046Z,4.40
2018-11-25T02:10:14.194Z,4.40
2018-11-25T02:12:42.264Z,4.40
2018-11-25T02:15:11.473Z,4.40
2018-11-25T02:17:39.557Z,4.50
2018-11-25T02:20:09.851Z,4.60
2018-11-25T02:22:37.916Z,4.60
2018-11-25T02:25:06.726Z,4.60
2018-11-25T02:27:34.967Z,4.60
2018-11-25T02:30:03.305Z,4.60
2018-11-25T02:32:31.371Z,4.60
2018-11-25T02:34:59.434Z,4.50
2018-11-25T02:37:27.670Z,4.60
2018-11-25T02:39:55.745Z,4.60
2018-11-25T02:42:23.818Z,4.60
2018-11-25T02:44:51.882Z,4.60
2018-11-25T02:47:19.971Z,4.60
2018-11-25T02:49:48.035Z,4.60
2018-11-25T02:52:16.090Z,4.40
2018-11-25T02:54:44.174Z,4.50
2018-11-25T02:57:12.251Z,4.50
2018-11-25T02:59:40.694Z,4.40
2018-11-25T03:02:08.764Z,4.40
2018-11-25T03:04:36.842Z,4.40
2018-11-25T03:07:04.992Z,4.30
2018-11-25T03:09:33.070Z,4.40
2018-11-25T03:12:01.144Z,4.40
2018-11-25T03:14:29.179Z,4.30
2018-11-25T03:16:57.233Z,4.30
2018-11-25T03:19:25.289Z,4.30
2018-11-25T03:21:53.344Z,4.30
2018-11-25T03:24:22.370Z,4.40
2018-11-25T03:26:50.447Z,4.30
2018-11-25T03:29:18.519Z,4.40
2018-11-25T03:31:46.779Z,4.30
2018-11-25T03:34:14.850Z,4.20
2018-11-25T03:36:42.899Z,4.20
2018-11-25T03:39:10.951Z,4.30
2018-11-25T03:41:39.063Z,4.50
2018-11-25T03:44:07.140Z,4.50
2018-11-25T03:46:35.222Z,4.40
2018-11-25T03:49:03.281Z,4.20
2018-11-25T03:51:31.342Z,4.00
2018-11-25T03:53:59.414Z,4.10
2018-11-25T03:56:27.490Z,4.10
2018-11-25T03:58:55.566Z,4.10
2018-11-25T04:01:23.614Z,4.20
2018-11-25T04:03:51.695Z,4.20
2018-11-25T04:06:19.759Z,4.20
2018-11-25T04:08:47.840Z,4.30
2018-11-25T04:11:15.882Z,4.30
2018-11-25T04:13:43.922Z,4.30
2018-11-25T04:16:11.992Z,4.30
2018-11-25T04:18:40.086Z,4.30
2018-11-25T04:21:08.139Z,4.20
2018-11-25T04:23:36.194Z,4.20
2018-11-25T04:26:04.254Z,4.10
2018-11-25T04:28:32.324Z,4.20
2018-11-25T04:31:00.391Z,4.30
2018-11-25T04:33:28.465Z,4.40
2018-11-25T04:35:56.523Z,4.50
2018-11-25T04:38:24.603Z,4.50
2018-11-25T04:40:53.192Z,4.40
2018-11-25T04:43:21.219Z,4.40
2018-11-25T04:45:49.296Z,4.30
2018-11-25T04:48:17.354Z,4.20
2018-11-25T04:50:45.418Z,4.30
2018-11-25T04:53:13.525Z,4.40
2018-11-25T04:55:41.595Z,4.50
2018-11-25T04:58:09.685Z,4.50
2018-11-25T05:00:37.761Z,4.50
2018-11-25T05:03:05.829Z,4.40
2018-11-25T05:05:33.902Z,4.40
2018-11-25T05:08:02.047Z,4.40
2018-11-25T05:10:30.111Z,4.40
2018-11-25T05:12:58.159Z,4.40
2018-11-25T05:15:26.214Z,4.40
2018-11-25T05:17:54.272Z,4.50
2018-11-25T05:20:23.042Z,4.40
2018-11-25T05:22:51.131Z,4.30
2018-11-25T05:25:19.681Z,4.50
2018-11-25T05:27:47.763Z,4.50
2018-11-25T05:30:16.748Z,4.50
2018-11-25T05:32:44.853Z,4.40
2018-11-25T05:35:14.091Z,4.40
2018-11-25T05:37:42.161Z,4.40
2018-11-25T05:40:11.984Z,4.50
2018-11-25T05:42:40.750Z,4.60
2018-11-25T05:45:11.006Z,4.50
2018-11-25T05:47:39.174Z,4.50
2018-11-25T05:50:09.179Z,4.50
2018-11-25T05:52:37.413Z,4.60
2018-11-25T05:55:06.958Z,4.60
2018-11-25T05:57:35.138Z,4.50
2018-11-25T06:00:03.338Z,4.50
2018-11-25T06:02:31.420Z,4.70
2018-11-25T06:04:59.498Z,4.60
2018-11-25T06:07:27.572Z,4.50
2018-11-25T06:09:55.611Z,4.60
2018-11-25T06:12:23.679Z,4.50
2018-11-25T06:14:51.774Z,4.50
2018-11-25T06:17:19.858Z,4.50
2018-11-25T06:19:48.009Z,4.40
2018-11-25T06:22:16.044Z,4.30
2018-11-25T06:24:44.114Z,4.30
2018-11-25T06:27:12.190Z,4.40
2018-11-25T06:29:40.673Z,4.40
2018-11-25T06:32:09.226Z,4.40
2018-11-25T06:34:37.274Z,4.20
2018-11-25T06:37:05.370Z,4.20
2018-11-25T06:39:34.439Z,4.20
2018-11-25T06:42:02.478Z,4.10
2018-11-25T06:44:37.288Z,4.20
2018-11-25T06:47:05.758Z,4.20
2018-11-25T06:49:33.815Z,4.50
2018-11-25T06:52:01.867Z,5.20
2018-11-25T06:54:29.946Z,4.90
2018-11-25T06:56:58.000Z,4.70
2018-11-25T06:59:26.071Z,4.80
2018-11-25T07:01:54.117Z,5.10
2018-11-25T07:04:22.177Z,5.20
2018-11-25T07:06:50.202Z,5.40
2018-11-25T07:09:18.293Z,5.00
2018-11-25T07:11:46.354Z,5.00
2018-11-25T07:14:14.395Z,4.90
2018-11-25T07:16:42.454Z,4.90
2018-11-25T07:19:10.526Z,4.80
2018-11-25T07:21:38.564Z,4.70
2018-11-25T07:24:06.617Z,4.80
2018-11-25T07:26:34.694Z,4.70
2018-11-25T07:29:02.766Z,4.70
2018-11-25T07:31:30.850Z,4.70
2018-11-25T07:33:58.899Z,4.60
2018-11-25T07:36:26.981Z,4.60
2018-11-25T07:38:55.049Z,4.60
2018-11-25T07:41:23.108Z,4.60
2018-11-25T07:43:51.190Z,4.60
2018-11-25T07:46:19.235Z,4.70
2018-11-25T07:48:47.334Z,4.80
2018-11-25T07:51:15.397Z,4.80
2018-11-25T07:53:43.451Z,4.70
2018-11-25T07:56:11.506Z,4.80
2018-11-25T07:58:39.574Z,4.70
2018-11-25T08:01:07.663Z,4.70
2018-11-25T08:03:35.713Z,4.60
2018-11-25T08:06:04.418Z,4.60
2018-11-25T08:08:32.479Z,4.60
2018-11-25T08:11:00.526Z,4.60
2018-11-25T08:13:28.582Z,4.70
2018-11-25T08:15:56.622Z,4.60
2018-11-25T08:18:24.685Z,4.50
2018-11-25T08:20:52.730Z,4.40
2018-11-25T08:23:20.799Z,4.50
2018-11-25T08:25:48.922Z,4.70
2018-11-25T08:28:17.005Z,4.50
2018-11-25T08:30:45.055Z,4.60
2018-11-25T08:33:13.151Z,4.70
2018-11-25T08:35:41.230Z,4.70
2018-11-25T08:38:09.295Z,4.70
2018-11-25T08:40:37.344Z,4.70
2018-11-25T08:43:05.404Z,4.70
2018-11-25T08:45:33.453Z,4.90
2018-11-25T08:48:01.515Z,4.90
2018-11-25T08:50:29.601Z,4.90
2018-11-25T08:52:57.630Z,4.80
2018-11-25T08:55:26.063Z,4.90
2018-11-25T08:57:54.541Z,5.00
2018-11-25T09:00:23.555Z,5.00
2018-11-25T09:02:52.522Z,4.90
2018-11-25T09:05:20.601Z,5.00
2018-11-25T09:07:48.675Z,5.10
2018-11-25T09:10:18.550Z,5.40
2018-11-25T09:12:55.121Z,5.40
2018-11-25T09:15:16.990Z,5.30
2018-11-25T09:17:45.043Z,5.20
2018-11-25T09:20:15.172Z,5.30
2018-11-25T09:22:43.275Z,5.40
2018-11-25T09:25:12.779Z,5.50
2018-11-25T09:27:40.819Z,5.40
2018-11-25T09:30:15.580Z,5.40
2018-11-25T09:32:43.602Z,5.40
2018-11-25T09:35:11.666Z,5.30
2018-11-25T09:37:39.747Z,5.40
2018-11-25T09:40:10.495Z,5.40
2018-11-25T09:42:38.622Z,5.60
2018-11-25T09:45:09.534Z,5.60
2018-11-25T09:47:37.603Z,5.60
2018-11-25T09:50:10.214Z,5.80
2018-11-25T09:52:38.458Z,5.70
2018-11-25T09:55:08.671Z,5.60
2018-11-25T09:57:36.710Z,5.70
2018-11-25T10:00:12.050Z,5.80
2018-11-25T10:02:40.148Z,6.00
2018-11-25T10:05:08.470Z,5.80
2018-11-25T10:07:37.540Z,5.80
2018-11-25T10:10:09.905Z,5.70
2018-11-25T10:12:37.947Z,5.70
2018-11-25T10:15:08.071Z,5.70
2018-11-25T10:17:36.182Z,5.70
2018-11-25T10:20:06.878Z,5.50
2018-11-25T10:22:34.929Z,5.60
2018-11-25T10:25:03.042Z,5.70
2018-11-25T10:27:31.107Z,5.80
2018-11-25T10:29:59.234Z,5.80
2018-11-25T10:32:27.291Z,5.90
2018-11-25T10:34:55.359Z,6.00
2018-11-25T10:37:23.403Z,6.10
2018-11-25T10:39:51.480Z,5.90
2018-11-25T10:42:19.535Z,5.90
2018-11-25T10:44:47.799Z,5.90
2018-11-25T10:47:15.868Z,6.00
2018-11-25T10:49:43.950Z,6.00
2018-11-25T10:52:12.018Z,6.00
2018-11-25T10:54:40.114Z,5.90
2018-11-25T10:57:08.245Z,5.90
2018-11-25T10:59:36.338Z,5.90
2018-11-25T11:02:10.012Z,6.00
2018-11-25T11:04:43.536Z,6.00
2018-11-25T11:07:17.137Z,6.00
2018-11-25T11:09:45.191Z,6.90
2018-11-25T11:12:13.248Z,7.10
2018-11-25T11:14:41.294Z,7.20
2018-11-25T11:17:09.382Z,7.30
2018-11-25T11:19:37.462Z,7.50
2018-11-25T11:22:06.068Z,7.00
2018-11-25T11:24:34.140Z,6.50
2018-11-25T11:27:02.606Z,6.30
2018-11-25T11:29:30.675Z,6.00
2018-11-25T11:31:58.780Z,5.80
2018-11-25T11:34:26.847Z,5.90
2018-11-25T11:36:54.926Z,6.00
2018-11-25T11:39:22.988Z,6.00
2018-11-25T11:41:51.079Z,6.00
2018-11-25T11:44:19.195Z,6.10
2018-11-25T11:46:47.312Z,6.10
2018-11-25T11:49:15.360Z,6.20
2018-11-25T11:51:44.070Z,6.20
2018-11-25T11:54:12.137Z,6.10
2018-11-25T11:56:40.461Z,6.00
2018-11-25T11:59:08.355Z,6.00
2018-11-25T12:01:36.402Z,6.00
2018-11-25T12:04:05.249Z,5.90
2018-11-25T12:06:33.317Z,5.90
2018-11-25T12:09:01.435Z,6.00
2018-11-25T12:11:29.518Z,5.90
2018-11-25T12:13:57.794Z,6.00
2018-11-25T12:16:25.861Z,6.00
2018-11-25T12:18:53.930Z,6.00
2018-11-25T12:21:22.011Z,6.10
2018-11-25T12:23:50.074Z,6.10
2018-11-25T12:26:18.470Z,6.20
2018-11-25T12:28:46.555Z,6.00
2018-11-25T12:31:14.619Z,6.00
2018-11-25T12:33:42.679Z,6.00
2018-11-25T12:36:10.814Z,6.10
2018-11-25T12:38:38.862Z,6.20
2018-11-25T12:41:06.915Z,6.20
2018-11-25T12:43:35.010Z,6.20
2018-11-25T12:46:03.201Z,6.20
2018-11-25T12:48:31.223Z,6.20
2018-11-25T12:50:59.331Z,6.20
2018-11-25T12:53:27.411Z,6.00
2018-11-25T12:55:55.506Z,6.00
2018-11-25T12:58:23.570Z,6.10
2018-11-25T13:00:51.665Z,6.00
2018-11-25T13:03:19.732Z,6.10
2018-11-25T13:05:47.792Z,6.10
2018-11-25T13:08:16.213Z,6.20
2018-11-25T13:10:44.256Z,6.20
2018-11-25T13:13:12.587Z,6.00
2018-11-25T13:15:40.725Z,6.00
2018-11-25T13:18:09.559Z,6.00
2018-11-25T13:20:37.699Z,6.10
2018-11-25T13:23:06.340Z,6.10
2018-11-25T13:25:34.507Z,6.10
2018-11-25T13:28:02.648Z,6.10
2018-11-25T13:30:31.778Z,5.80
2018-11-25T13:33:02.625Z,5.90
2018-11-25T13:35:34.256Z,6.10
2018-11-25T13:38:02.386Z,6.10
2018-11-25T13:40:30.432Z,6.20
2018-11-25T13:42:58.514Z,6.10
2018-11-25T13:45:26.558Z,6.10
2018-11-25T13:47:54.651Z,6.20
2018-11-25T13:50:22.726Z,6.20
2018-11-25T13:52:51.345Z,6.30
2018-11-25T13:55:22.030Z,6.40
2018-11-25T13:57:50.198Z,6.40
2018-11-25T14:00:50.085Z,6.40
2018-11-25T14:03:20.970Z,6.40
2018-11-25T14:05:53.219Z,6.50
2018-11-25T14:08:17.118Z,6.60
2018-11-25T14:10:45.177Z,6.60
2018-11-25T14:13:13.290Z,6.50
2018-11-25T14:15:41.339Z,6.40
2018-11-25T14:18:09.823Z,6.30
2018-11-25T14:20:38.165Z,6.30
2018-11-25T14:23:06.222Z,6.40
2018-11-25T14:25:34.282Z,6.30
2018-11-25T14:28:04.626Z,6.30
2018-11-25T14:30:32.939Z,6.50
2018-11-25T14:33:00.990Z,6.40
2018-11-25T14:35:29.102Z,6.40
2018-11-25T14:37:57.679Z,6.30
2018-11-25T14:40:25.818Z,6.20
2018-11-25T14:42:53.894Z,6.10
2018-11-25T14:45:22.046Z,6.10
2018-11-25T14:47:50.223Z,6.20
2018-11-25T14:50:19.297Z,6.10
2018-11-25T14:52:50.533Z,6.10
2018-11-25T14:55:19.006Z,6.10
2018-11-25T14:57:47.074Z,6.00
2018-11-25T15:00:19.756Z,6.00
2018-11-25T15:02:53.610Z,6.10
2018-11-25T15:05:42.770Z,6.00
2018-11-25T15:08:13.678Z,6.00
2018-11-25T15:10:41.782Z,6.00
2018-11-25T15:13:09.910Z,6.00
2018-11-25T15:15:38.994Z,6.10
2018-11-25T15:18:08.018Z,6.20
2018-11-25T15:20:36.079Z,6.20
2018-11-25T15:23:06.631Z,5.90
2018-11-25T15:25:36.446Z,5.90
2018-11-25T15:28:04.821Z,5.90
2018-11-25T15:30:32.898Z,5.90
2018-11-25T15:33:00.956Z,5.80
2018-11-25T15:35:29.103Z,5.60
2018-11-25T15:37:57.270Z,5.60
2018-11-25T15:40:30.639Z,5.50
2018-11-25T15:42:58.877Z,5.70
2018-11-25T15:45:26.951Z,5.60
2018-11-25T15:47:59.730Z,5.50
2018-11-25T15:50:28.554Z,5.50
2018-11-25T15:52:57.294Z,5.50
2018-11-25T15:55:25.442Z,5.60
2018-11-25T15:57:53.916Z,5.60
2018-11-25T16:00:23.169Z,5.70
2018-11-25T16:02:51.183Z,5.70
2018-11-25T16:05:20.791Z,5.80
2018-11-25T16:07:48.909Z,5.60
2018-11-25T16:10:16.979Z,5.40
2018-11-25T16:12:46.388Z,5.30
2018-11-25T16:15:16.043Z,5.40
2018-11-25T16:17:44.138Z,5.50
2018-11-25T16:20:14.322Z,5.40
2018-11-25T16:22:42.528Z,5.30
2018-11-25T16:25:13.462Z,5.20
2018-11-25T16:27:41.571Z,5.30
2018-11-25T16:30:11.246Z,5.40
2018-11-25T16:32:40.450Z,5.30
2018-11-25T16:35:09.770Z,5.20
2018-11-25T16:37:39.590Z,5.30
2018-11-25T16:40:09.923Z,5.20
2018-11-25T16:42:37.999Z,5.20
2018-11-25T16:45:09.675Z,5.10
2018-11-25T16:47:37.730Z,5.00
2018-11-25T16:50:08.823Z,5.00
2018-11-25T16:52:37.524Z,5.20
2018-11-25T16:55:09.358Z,5.10
2018-11-25T16:57:38.238Z,5.10
2018-11-25T17:00:10.351Z,5.10
2018-11-25T17:02:38.393Z,5.10
2018-11-25T17:05:08.716Z,5.00
2018-11-25T17:07:36.842Z,5.10
2018-11-25T17:10:07.037Z,4.90
2018-11-25T17:12:35.444Z,4.90
2018-11-25T17:15:03.679Z,5.00
2018-11-25T17:17:32.625Z,4.90
2018-11-25T17:20:00.800Z,4.80
2018-11-25T17:22:29.090Z,4.70
2018-11-25T17:24:57.218Z,4.70
2018-11-25T17:27:25.298Z,4.80
2018-11-25T17:29:53.346Z,4.70
2018-11-25T17:32:21.464Z,4.60
2018-11-25T17:34:49.506Z,4.70
2018-11-25T17:37:18.123Z,4.80
2018-11-25T17:39:46.213Z,4.80
2018-11-25T17:42:14.383Z,4.80
2018-11-25T17:44:42.423Z,4.70
2018-11-25T17:47:10.487Z,4.70
2018-11-25T17:49:38.569Z,4.60
2018-11-25T17:52:06.636Z,4.60
2018-11-25T17:54:34.709Z,4.50
2018-11-25T17:57:02.795Z,4.50
2018-11-25T17:59:30.839Z,4.40
2018-11-25T18:01:58.912Z,4.40
2018-11-25T18:04:27.618Z,4.40
2018-11-25T18:06:55.705Z,4.40
2018-11-25T18:09:23.783Z,4.40
2018-11-25T18:11:51.868Z,4.30
2018-11-25T18:14:19.939Z,4.30
2018-11-25T18:16:48.020Z,4.20
2018-11-25T18:19:20.256Z,4.20
2018-11-25T18:21:50.473Z,4.20
2018-11-25T18:24:18.547Z,4.20
2018-11-25T18:26:46.851Z,4.20
2018-11-25T18:29:14.900Z,4.30
2018-11-25T18:31:42.958Z,4.30
2018-11-25T18:34:11.062Z,4.40
2018-11-25T18:36:39.112Z,4.50
2018-11-25T18:39:10.756Z,4.70
2018-11-25T18:41:38.963Z,4.80
2018-11-25T18:44:07.174Z,4.80
2018-11-25T18:46:35.304Z,4.90
2018-11-25T18:49:06.432Z,4.90
2018-11-25T18:51:34.471Z,5.00
2018-11-25T18:54:02.519Z,5.20
2018-11-25T18:56:30.584Z,5.20
2018-11-25T18:58:58.643Z,5.00
2018-11-25T19:01:34.682Z,5.00
2018-11-25T19:04:02.721Z,5.00
2018-11-25T19:06:30.830Z,5.00
2018-11-25T19:08:58.918Z,5.00
2018-11-25T19:11:27.180Z,5.00
2018-11-25T19:13:55.248Z,5.00
2018-11-25T19:16:23.319Z,5.00
2018-11-25T19:18:51.403Z,5.00
2018-11-25T19:21:19.478Z,5.10
2018-11-25T19:23:47.687Z,5.10
2018-11-25T19:26:15.956Z,5.10
2018-11-25T19:28:44.034Z,5.10
2018-11-25T19:31:12.090Z,5.10
2018-11-25T19:33:40.140Z,5.10
2018-11-25T19:36:08.191Z,5.10
2018-11-25T19:38:36.992Z,5.10
2018-11-25T19:41:05.942Z,5.10
2018-11-25T19:43:34.026Z,5.00
2018-11-25T19:46:02.078Z,5.00
2018-11-25T19:48:30.170Z,5.00
2018-11-25T19:51:05.292Z,5.00
2018-11-25T19:53:35.185Z,5.10
2018-11-25T19:56:10.369Z,5.20
2018-11-25T19:58:42.432Z,5.20
2018-11-25T20:01:11.500Z,5.30
2018-11-25T20:03:41.763Z,5.30
2018-11-25T20:06:09.834Z,5.30
2018-11-25T20:08:37.933Z,5.30
2018-11-25T20:11:05.998Z,5.30
2018-11-25T20:13:34.138Z,5.30
2018-11-25T20:16:07.675Z,5.20
2018-11-25T20:18:35.739Z,5.20
2018-11-25T20:21:12.298Z,5.20
2018-11-25T20:23:40.398Z,5.20
2018-11-25T20:26:08.498Z,5.20
2018-11-25T20:28:36.607Z,5.30
2018-11-25T20:31:05.119Z,5.20
2018-11-25T20:33:38.703Z,5.20
2018-11-25T20:36:06.783Z,5.20
2018-11-25T20:38:40.443Z,5.20
2018-11-25T20:41:08.516Z,5.30
2018-11-25T20:43:37.464Z,5.20
2018-11-25T20:46:11.164Z,5.20
2018-11-25T20:48:39.253Z,5.20
2018-11-25T20:51:07.459Z,5.10
2018-11-25T20:53:40.902Z,5.20
2018-11-25T20:56:09.037Z,5.20
2018-11-25T20:58:38.122Z,5.20
2018-11-25T21:01:06.201Z,5.20
2018-11-25T21:03:34.234Z,5.20
2018-11-25T21:06:03.263Z,5.10
2018-11-25T21:08:31.335Z,5.20
2018-11-25T21:10:59.704Z,5.10
2018-11-25T21:13:27.978Z,5.20
2018-11-25T21:15:56.074Z,5.10
2018-11-25T21:18:24.124Z,5.50
2018-11-25T21:20:52.295Z,5.80
2018-11-25T21:23:20.331Z,6.00
2018-11-25T21:25:48.383Z,6.10
2018-11-25T21:28:16.446Z,6.50
2018-11-25T21:30:44.495Z,6.70
2018-11-25T21:33:12.576Z,6.60
2018-11-25T21:35:40.898Z,6.80
2018-11-25T21:38:08.942Z,6.50
2018-11-25T21:40:37.545Z,6.50
2018-11-25T21:43:05.595Z,6.10
2018-11-25T21:45:33.704Z,5.70
2018-11-25T21:48:02.311Z,5.50
2018-11-25T21:50:30.359Z,5.30
2018-11-25T21:52:58.474Z,5.20
2018-11-25T21:55:26.630Z,5.20
2018-11-25T21:57:54.727Z,5.10
2018-11-25T22:00:24.748Z,5.00
2018-11-25T22:02:52.820Z,4.90
2018-11-25T22:05:24.736Z,4.90
2018-11-25T22:07:49.245Z,4.70
2018-11-25T22:10:18.370Z,4.70
2018-11-25T22:12:46.843Z,4.70
2018-11-25T22:15:18.115Z,4.70
2018-11-25T22:17:46.199Z,4.60
2018-11-25T22:20:14.945Z,4.60
2018-11-25T22:22:43.119Z,4.60
2018-11-25T22:25:12.245Z,4.60
2018-11-25T22:27:40.315Z,4.70
2018-11-25T22:30:11.469Z,4.80
2018-11-25T22:32:39.523Z,4.70
2018-11-25T22:35:11.601Z,4.60
2018-11-25T22:37:39.669Z,4.60
2018-11-25T22:40:09.700Z,4.60
2018-11-25T22:42:38.919Z,4.60
2018-11-25T22:45:09.454Z,4.60
2018-11-25T22:47:37.757Z,4.70
2018-11-25T22:50:07.583Z,4.70
2018-11-25T22:52:35.650Z,4.60
2018-11-25T22:55:03.838Z,4.70
2018-11-25T22:57:31.931Z,4.70
2018-11-25T22:59:59.986Z,4.70
2018-11-25T23:02:28.056Z,4.60
2018-11-25T23:05:07.522Z,4.60
2018-11-25T23:07:35.589Z,4.70
2018-11-25T23:10:03.630Z,4.70
2018-11-25T23:12:31.678Z,4.70
2018-11-25T23:14:59.728Z,4.70
2018-11-25T23:17:27.775Z,4.70
2018-11-25T23:19:56.066Z,4.80
2018-11-25T23:22:24.127Z,4.70
2018-11-25T23:24:52.162Z,4.70
2018-11-25T23:27:20.212Z,4.80
2018-11-25T23:29:48.247Z,4.90
2018-11-25T23:32:17.309Z,4.90
2018-11-25T23:34:45.366Z,5.00
2018-11-25T23:37:13.467Z,5.10
2018-11-25T23:39:41.594Z,5.10
2018-11-25T23:42:09.671Z,5.10
2018-11-25T23:44:37.741Z,5.10
2018-11-25T23:47:05.785Z,5.10
2018-11-25T23:49:33.858Z,4.90
2018-11-25T23:52:01.906Z,4.80
2018-11-25T23:54:30.004Z,4.80
2018-11-25T23:56:58.118Z,4.80
2018-11-25T23:59:26.179Z,4.80
